Time;durP1;ratioP1;P1;durP2;ratioP2;P2;SDS_P1;SDS_P2;PMS_P1;PMS_P2;Temp;Humidity;BMP_temperature;BMP_pressure;BME280_temperature;BME280_humidity;BME280_pressure;Samples;Min_cycle;Max_cycle;Signal;HPM_P1;HPM_P2
2023/03/23 00:01:19;;;;;;;0.40;0.40;;;;;;;;;;5027736;28;20516;-53
2023/03/23 00:03:46;;;;;;;0.50;0.50;;;;;;;;;;5012986;28;20120;-55
2023/03/23 00:06:16;;;;;;;0.50;0.50;;;;;;;;;;5015223;28;20120;-52
2023/03/23 00:08:46;;;;;;;0.20;0.20;;;;;;;;;;5017054;28;20038;-51
2023/03/23 00:11:21;;;;;;;0.10;0.10;;;;;;;;;;5016866;28;20113;-55
2023/03/23 00:13:52;;;;;;;0.30;0.30;;;10.20;99.90;;;;;;5031473;28;20755;-52
2023/03/23 00:16:20;;;;;;;0.10;0.10;;;10.10;99.90;;;;;;5017206;28;20029;-51
2023/03/23 00:18:47;;;;;;;0.20;0.20;;;9.60;99.90;;;;;;5016635;28;20030;-53
2023/03/23 00:21:14;;;;;;;0.32;0.32;;;;;;;;;;5014537;28;20096;-53
2023/03/23 00:23:40;;;;;;;0.30;0.30;;;9.20;99.90;;;;;;5014274;28;20042;-52
2023/03/23 00:26:06;;;;;;;0.10;0.10;;;8.90;99.90;;;;;;5014320;28;20030;-53
2023/03/23 00:28:32;;;;;;;0.17;0.17;;;8.70;99.90;;;;;;5014407;28;20034;-51
2023/03/23 00:31:03;;;;;;;0.20;0.20;;;8.80;99.90;;;;;;5014320;28;20488;-55
2023/03/23 00:33:37;;;;;;;0.20;0.20;;;8.80;99.90;;;;;;5014209;28;20033;-53
2023/03/23 00:36:09;;;;;;;0.25;0.25;;;8.90;99.90;;;;;;5014267;28;20041;-55
2023/03/23 00:38:35;;;;;;;0.20;0.20;;;9.10;99.90;;;;;;5014195;28;20029;-50
2023/03/23 00:41:04;;;;;;;0.20;0.20;;;9.00;99.90;;;;;;5014119;28;20065;-52
2023/03/23 00:43:31;;;;;;;0.65;0.65;;;9.00;99.90;;;;;;5014009;28;20042;-53
2023/03/23 00:46:00;;;;;;;0.20;0.20;;;8.90;99.90;;;;;;5014069;28;20041;-54
2023/03/23 00:48:28;;;;;;;0.22;0.22;;;9.00;99.90;;;;;;5013952;28;20440;-55
2023/03/23 00:50:54;;;;;;;0.10;0.10;;;9.10;99.90;;;;;;5013939;28;20117;-52
2023/03/23 00:53:20;;;;;;;0.20;0.20;;;9.10;99.90;;;;;;5030575;28;20040;-52
2023/03/23 00:55:46;;;;;;;0.10;0.10;;;9.00;99.90;;;;;;5014225;28;20033;-52
2023/03/23 00:58:13;;;;;;;0.20;0.20;;;8.90;99.90;;;;;;5015893;28;20028;-55
2023/03/23 01:00:39;;;;;;;0.30;0.30;;;8.70;99.90;;;;;;5015947;28;20045;-54
2023/03/23 01:03:07;;;;;;;0.30;0.30;;;8.80;99.90;;;;;;5015826;28;20034;-54
2023/03/23 01:05:36;;;;;;;0.20;0.20;;;8.90;99.90;;;;;;5015663;28;20033;-52
2023/03/23 01:08:04;;;;;;;0.30;0.30;;;8.90;99.90;;;;;;5015950;28;20428;-55
2023/03/23 01:10:32;;;;;;;0.13;0.13;;;9.00;99.90;;;;;;5015885;28;20061;-51
2023/03/23 01:13:02;;;;;;;0.70;0.70;;;8.70;99.90;;;;;;5030269;28;20468;-55
2023/03/23 01:15:29;;;;;;;0.10;0.10;;;8.90;99.90;;;;;;5015329;28;20176;-54
2023/03/23 01:17:56;;;;;;;0.10;0.10;;;9.00;99.90;;;;;;5015213;28;20045;-54
2023/03/23 01:20:22;;;;;;;0.30;0.30;;;;;;;;;;5015543;28;20083;-55
2023/03/23 01:22:48;;;;;;;0.20;0.20;;;9.70;99.90;;;;;;5015127;28;20053;-51
2023/03/23 01:25:14;;;;;;;0.20;0.20;;;9.50;99.90;;;;;;5013614;28;20049;-52
2023/03/23 01:27:40;;;;;;;0.70;0.70;;;9.40;99.90;;;;;;5015453;28;20596;-50
2023/03/23 01:30:08;;;;;;;0.15;0.15;;;9.30;99.90;;;;;;5015499;28;20108;-54
2023/03/23 01:32:34;;;;;;;0.22;0.22;;;9.30;99.90;;;;;;5013534;28;20477;-52
2023/03/23 01:35:00;;;;;;;0.30;0.30;;;9.30;99.90;;;;;;5013366;28;20037;-51
2023/03/23 01:37:26;;;;;;;0.22;0.22;;;9.50;99.90;;;;;;5030198;28;20397;-51
2023/03/23 01:39:56;;;;;;;0.25;0.25;;;9.50;99.90;;;;;;5016904;28;20033;-52
2023/03/23 01:42:30;;;;;;;0.20;0.20;;;9.30;99.90;;;;;;5015711;28;20088;-55
2023/03/23 01:45:14;;;;;;;0.20;0.20;;;9.10;99.90;;;;;;5015418;28;20092;-54
2023/03/23 01:47:40;;;;;;;0.20;0.20;;;;;;;;;;5015651;28;20041;-54
2023/03/23 01:50:07;;;;;;;0.10;0.10;;;8.30;99.90;;;;;;5030401;28;20069;-54
2023/03/23 01:52:36;;;;;;;0.20;0.20;;;8.30;99.90;;;;;;5013510;28;20046;-51
2023/03/23 01:55:03;;;;;;;0.20;0.20;;;8.40;99.90;;;;;;5015253;28;20053;-55
2023/03/23 01:57:31;;;;;;;0.40;0.40;;;8.70;99.90;;;;;;4997361;28;20125;-51
2023/03/23 01:59:59;;;;;;;0.20;0.20;;;8.70;99.90;;;;;;5014854;28;20033;-51
2023/03/23 02:02:26;;;;;;;0.20;0.20;;;8.40;99.90;;;;;;5014800;28;20034;-53
2023/03/23 02:04:56;;;;;;;0.25;0.25;;;8.60;99.90;;;;;;5014905;28;20413;-52
2023/03/23 02:07:23;;;;;;;0.10;0.10;;;8.80;99.90;;;;;;5014512;28;20474;-53
2023/03/23 02:09:50;;;;;;;0.50;0.50;;;9.10;99.90;;;;;;5014561;28;20033;-51
2023/03/23 02:12:16;;;;;;;0.30;0.30;;;9.30;99.90;;;;;;5014696;28;20033;-52
2023/03/23 02:14:41;;;;;;;0.20;0.20;;;9.20;99.90;;;;;;5014445;28;20377;-53
2023/03/23 02:17:20;;;;;;;0.20;0.20;;;8.90;99.90;;;;;;5014558;28;20026;-52
2023/03/23 02:20:07;;;;;;;0.10;0.10;;;8.80;99.90;;;;;;5012572;28;20042;-54
2023/03/23 02:22:51;;;;;;;0.10;0.10;;;8.50;99.90;;;;;;5014163;28;20076;-52
2023/03/23 02:25:44;;;;;;;0.28;0.28;;;8.50;99.90;;;;;;5014113;28;20038;-53
2023/03/23 02:28:26;;;;;;;0.10;0.10;;;8.50;99.90;;;;;;5013656;28;20069;-53
2023/03/23 02:31:28;;;;;;;0.30;0.30;;;8.70;99.90;;;;;;5014195;28;20034;-54
2023/03/23 02:34:20;;;;;;;0.20;0.20;;;9.10;99.90;;;;;;5014412;28;20038;-54
2023/03/23 02:37:03;;;;;;;0.40;0.40;;;9.40;99.90;;;;;;5013768;28;20025;-55
2023/03/23 02:39:41;;;;;;;0.20;0.20;;;9.60;99.90;;;;;;5014310;28;20038;-52
2023/03/23 02:42:09;;;;;;;0.30;0.30;;;9.60;99.90;;;;;;5028567;28;20177;-53
2023/03/23 02:44:50;;;;;;;0.10;0.10;;;9.70;99.90;;;;;;5014258;28;20038;-54
2023/03/23 02:47:23;;;;;;;0.10;0.10;;;9.80;99.90;;;;;;5014329;28;20160;-55
2023/03/23 02:49:53;;;;;;;0.20;0.20;;;9.90;99.90;;;;;;5014201;28;20034;-53
2023/03/23 02:52:23;;;;;;;0.30;0.30;;;9.90;99.90;;;;;;5013649;28;20030;-51
2023/03/23 02:54:50;;;;;;;0.20;0.20;;;10.00;99.90;;;;;;5012035;28;20120;-50
2023/03/23 02:57:16;;;;;;;0.57;0.57;;;10.00;99.90;;;;;;5013640;28;20088;-53
2023/03/23 02:59:43;;;;;;;0.20;0.20;;;10.00;99.90;;;;;;5011636;28;20040;-55
2023/03/23 03:02:18;;;;;;;0.30;0.30;;;10.00;99.90;;;;;;5028340;28;20438;-52
2023/03/23 03:05:23;;;;;;;0.20;0.20;;;10.00;99.90;;;;;;5013946;28;20034;-55
2023/03/23 03:08:30;;;;;;;0.20;0.20;;;10.00;99.90;;;;;;4995121;28;20060;-55
2023/03/23 03:11:06;;;;;;;0.35;0.35;;;10.10;99.90;;;;;;4972644;28;20046;-55
2023/03/23 03:13:47;;;;;;;0.10;0.10;;;10.20;99.90;;;;;;4972330;28;20031;-52
2023/03/23 03:17:02;;;;;;;0.10;0.10;;;10.20;99.90;;;;;;4972285;28;20510;-52
2023/03/23 03:19:51;;;;;;;0.35;0.32;;;10.10;99.90;;;;;;4934032;29;20052;-54
2023/03/23 03:22:20;;;;;;;0.10;0.10;;;10.10;99.90;;;;;;4933654;29;20083;-53
2023/03/23 03:24:48;;;;;;;0.10;0.10;;;10.00;99.90;;;;;;4933699;29;20456;-54
2023/03/23 03:27:18;;;;;;;0.17;0.17;;;9.90;99.90;;;;;;4918020;29;20043;-51
2023/03/23 03:29:47;;;;;;;0.20;0.20;;;9.90;99.90;;;;;;4933648;29;20036;-56
2023/03/23 03:32:26;;;;;;;0.50;0.50;;;;;;;;;;4933814;29;20396;-52
2023/03/23 03:34:52;;;;;;;0.40;0.40;;;8.80;99.90;;;;;;4933804;29;20040;-53
2023/03/23 03:37:20;;;;;;;0.20;0.20;;;8.50;99.90;;;;;;4933415;29;20036;-56
2023/03/23 03:39:46;;;;;;;0.30;0.30;;;8.50;99.90;;;;;;4935199;29;20035;-54
2023/03/23 03:42:12;;;;;;;0.47;0.47;;;8.70;99.90;;;;;;4937749;29;20044;-55
2023/03/23 03:44:38;;;;;;;0.28;0.28;;;9.00;99.90;;;;;;4947715;28;20049;-52
2023/03/23 03:47:04;;;;;;;0.20;0.20;;;;;;;;;;4959606;28;20165;-53
2023/03/23 03:49:30;;;;;;;0.20;0.20;;;;;;;;;;4980514;28;20042;-53
2023/03/23 03:51:56;;;;;;;0.10;0.10;;;9.00;99.90;;;;;;4998011;28;20034;-51
2023/03/23 03:54:22;;;;;;;0.47;0.40;;;;;;;;;;4995842;28;20041;-54
2023/03/23 03:56:47;;;;;;;1.45;0.68;;;8.30;99.90;;;;;;4997301;28;20061;-52
2023/03/23 03:59:13;;;;;;;0.10;0.10;;;8.20;99.90;;;;;;4996324;28;20057;-51
2023/03/23 04:01:39;;;;;;;0.10;0.10;;;8.20;99.90;;;;;;4995393;28;20034;-52
2023/03/23 04:04:08;;;;;;;0.52;0.52;;;8.40;99.90;;;;;;4997319;28;20035;-54
2023/03/23 04:06:35;;;;;;;0.20;0.20;;;8.10;99.90;;;;;;4997435;28;20106;-53
2023/03/23 04:09:06;;;;;;;0.47;0.47;;;8.00;99.90;;;;;;4997623;28;20030;-54
2023/03/23 04:11:32;;;;;;;0.13;0.13;;;8.20;99.90;;;;;;5003028;28;20045;-54
2023/03/23 04:13:58;;;;;;;0.10;0.10;;;8.40;99.90;;;;;;5016751;28;20026;-52
2023/03/23 04:16:23;;;;;;;0.52;0.52;;;8.40;99.90;;;;;;5014872;28;20121;-54
2023/03/23 04:18:49;;;;;;;0.20;0.20;;;8.60;99.90;;;;;;5016878;28;20108;-51
2023/03/23 04:21:15;;;;;;;0.43;0.20;;;8.90;99.90;;;;;;5014844;28;20045;-50
2023/03/23 04:23:41;;;;;;;0.20;0.20;;;9.10;99.90;;;;;;5016335;28;20117;-51
2023/03/23 04:26:07;;;;;;;0.10;0.10;;;9.20;99.90;;;;;;5016773;28;20057;-52
2023/03/23 04:28:33;;;;;;;0.20;0.20;;;;;;;;;;5016360;28;20051;-51
2023/03/23 04:31:00;;;;;;;0.20;0.20;;;;;;;;;;5016244;28;20116;-55
2023/03/23 04:33:28;;;;;;;0.22;0.22;;;9.30;99.90;;;;;;5016551;28;20025;-54
2023/03/23 04:35:56;;;;;;;0.10;0.10;;;9.40;99.90;;;;;;5016416;28;20018;-52
2023/03/23 04:38:23;;;;;;;0.30;0.30;;;9.30;99.90;;;;;;5016660;28;20037;-53
2023/03/23 04:40:51;;;;;;;0.20;0.20;;;9.20;99.90;;;;;;5015928;28;20068;-56
2023/03/23 04:43:21;;;;;;;0.32;0.32;;;9.10;99.90;;;;;;5016613;28;20034;-53
2023/03/23 04:45:57;;;;;;;0.60;0.60;;;9.20;99.90;;;;;;5015920;28;20108;-54
2023/03/23 04:48:27;;;;;;;0.38;0.38;;;9.40;99.90;;;;;;5016449;28;20026;-53
2023/03/23 04:50:54;;;;;;;0.20;0.20;;;9.60;99.90;;;;;;5015333;28;20113;-53
2023/03/23 04:53:19;;;;;;;0.57;0.57;;;9.70;99.90;;;;;;5016071;28;20409;-54
2023/03/23 04:55:47;;;;;;;0.60;0.60;;;9.80;99.90;;;;;;5014195;28;20038;-50
2023/03/23 04:58:15;;;;;;;0.30;0.30;;;9.80;99.90;;;;;;5016422;28;20113;-51
2023/03/23 05:00:43;;;;;;;0.20;0.20;;;;;;;;;;5016281;28;20104;-51
2023/03/23 05:03:09;;;;;;;0.43;0.43;;;;;;;;;;5015806;28;20103;-53
2023/03/23 05:05:35;;;;;;;0.40;0.40;;;9.90;99.90;;;;;;5015916;28;20025;-53
2023/03/23 05:08:01;;;;;;;0.60;0.60;;;10.00;99.90;;;;;;5047027;28;20543;-54
2023/03/23 05:10:27;;;;;;;0.30;0.30;;;10.20;99.90;;;;;;5015765;28;20429;-54
2023/03/23 05:12:54;;;;;;;0.30;0.30;;;10.30;99.90;;;;;;5015684;28;20105;-52
2023/03/23 05:15:20;;;;;;;0.30;0.20;;;10.20;99.90;;;;;;5016237;28;20068;-52
2023/03/23 05:17:46;;;;;;;0.13;0.13;;;10.20;99.90;;;;;;5015850;28;20061;-53
2023/03/23 05:20:20;;;;;;;0.13;0.13;;;10.30;99.90;;;;;;5015539;28;20034;-53
2023/03/23 05:22:49;;;;;;;0.22;0.22;;;;;;;;;;5014896;28;20176;-56
2023/03/23 05:25:15;;;;;;;0.10;0.10;;;;;;;;;;5015797;28;20046;-52
2023/03/23 05:27:48;;;;;;;0.57;0.57;;;;;;;;;;5015298;28;20109;-54
2023/03/23 05:30:16;;;;;;;0.10;0.10;;;;;;;;;;5015317;28;20109;-50
2023/03/23 05:32:42;;;;;;;0.10;0.10;;;;;;;;;;5015572;28;20034;-51
2023/03/23 05:35:08;;;;;;;0.43;0.43;;;;;;;;;;4997130;28;20030;-51
2023/03/23 05:37:34;;;;;;;0.32;0.32;;;;;;;;;;5015703;28;20382;-55
2023/03/23 05:40:05;;;;;;;0.57;0.57;;;10.60;99.90;;;;;;5015123;28;20497;-54
2023/03/23 05:42:35;;;;;;;0.17;0.17;;;10.60;99.90;;;;;;5003138;28;20042;-54
2023/03/23 05:45:03;;;;;;;0.30;0.30;;;10.60;99.90;;;;;;4995537;28;20042;-52
2023/03/23 05:47:29;;;;;;;0.55;0.55;;;10.70;99.90;;;;;;4977478;28;20049;-53
2023/03/23 05:49:54;;;;;;;0.20;0.20;;;10.70;99.90;;;;;;4995541;28;20101;-53
2023/03/23 05:52:20;;;;;;;0.43;0.43;;;10.80;99.90;;;;;;4980285;28;20046;-56
2023/03/23 05:54:46;;;;;;;5.13;0.60;;;10.90;99.90;;;;;;5015440;28;20381;-53
2023/03/23 05:57:13;;;;;;;0.20;0.20;;;;;;;;;;5015171;28;20022;-55
2023/03/23 05:59:38;;;;;;;1.02;0.52;;;11.00;99.90;;;;;;5013171;28;20038;-51
2023/03/23 06:02:05;;;;;;;0.22;0.22;;;11.00;99.90;;;;;;5012827;28;20529;-53
2023/03/23 06:04:33;;;;;;;0.35;0.35;;;10.80;99.90;;;;;;5014100;28;20092;-54
2023/03/23 06:07:00;;;;;;;0.30;0.30;;;10.80;99.90;;;;;;5014497;28;20096;-52
2023/03/23 06:09:26;;;;;;;0.30;0.30;;;10.90;99.90;;;;;;5003285;28;20034;-52
2023/03/23 06:11:52;;;;;;;0.30;0.30;;;11.00;99.90;;;;;;5005263;28;20026;-56
2023/03/23 06:14:18;;;;;;;0.57;0.50;;;;;;;;;;5003468;28;20041;-53
2023/03/23 06:16:44;;;;;;;0.82;0.82;;;11.40;99.90;;;;;;5004829;28;20034;-52
2023/03/23 06:19:10;;;;;;;0.30;0.30;;;11.60;99.90;;;;;;5002954;28;20363;-53
2023/03/23 06:21:37;;;;;;;0.22;0.22;;;11.30;99.90;;;;;;5004776;28;20462;-55
2023/03/23 06:24:03;;;;;;;0.63;0.63;;;11.30;99.90;;;;;;5007075;28;20135;-54
2023/03/23 06:26:36;;;;;;;0.10;0.10;;;11.30;99.90;;;;;;5013228;28;20834;-53
2023/03/23 06:29:04;;;;;;;0.20;0.20;;;11.50;99.90;;;;;;5014594;28;20377;-53
2023/03/23 06:31:33;;;;;;;1.05;0.50;;;11.70;99.90;;;;;;5014356;28;20044;-53
2023/03/23 06:33:58;;;;;;;0.35;0.35;;;11.80;99.90;;;;;;5014266;28;20429;-52
2023/03/23 06:36:26;;;;;;;0.10;0.10;;;11.80;99.90;;;;;;5028902;28;20089;-52
2023/03/23 06:38:52;;;;;;;0.28;0.28;;;11.90;99.90;;;;;;5012592;28;20080;-52
2023/03/23 06:41:18;;;;;;;0.40;0.40;;;11.90;99.90;;;;;;4995671;28;20437;-52
2023/03/23 06:43:46;;;;;;;0.85;0.60;;;12.00;99.90;;;;;;5013864;28;20042;-52
2023/03/23 06:46:11;;;;;;;0.80;0.57;;;12.10;99.90;;;;;;5014264;28;20030;-52
2023/03/23 06:48:38;;;;;;;0.65;0.57;;;12.20;99.90;;;;;;5014405;28;20484;-52
2023/03/23 06:51:04;;;;;;;0.65;0.40;;;;;;;;;;5007485;28;20038;-52
2023/03/23 06:53:30;;;;;;;0.10;0.10;;;12.90;99.90;;;;;;5003379;28;20545;-52
2023/03/23 06:55:56;;;;;;;1.00;0.90;;;;;;;;;;5004658;28;20121;-52
2023/03/23 06:58:23;;;;;;;0.20;0.20;;;13.30;99.90;;;;;;5004785;28;20018;-52
2023/03/23 07:00:56;;;;;;;0.20;0.20;;;13.70;99.90;;;;;;4993589;28;20038;-52
2023/03/23 07:03:23;;;;;;;0.45;0.45;;;13.80;99.90;;;;;;5001950;28;20049;-52
2023/03/23 07:05:49;;;;;;;0.20;0.20;;;13.90;99.90;;;;;;5003456;28;20068;-52
2023/03/23 07:08:16;;;;;;;0.20;0.20;;;;;;;;;;5002425;28;20477;-52
2023/03/23 07:10:42;;;;;;;0.17;0.17;;;14.70;99.90;;;;;;5004254;28;20365;-52
2023/03/23 07:13:08;;;;;;;0.65;0.65;;;14.90;99.90;;;;;;5003299;28;20022;-52
2023/03/23 07:15:33;;;;;;;0.25;0.25;;;15.00;99.90;;;;;;5008524;28;20116;-52
2023/03/23 07:18:00;;;;;;;0.77;0.45;;;;;;;;;;5018572;28;20074;-52
2023/03/23 07:20:26;;;;;;;0.50;0.50;;;;;;;;;;5002956;28;20018;-52
2023/03/23 07:22:54;;;;;;;0.20;0.20;;;15.90;99.90;;;;;;5002841;28;20050;-51
2023/03/23 07:25:21;;;;;;;0.30;0.30;;;;;;;;;;5004017;28;20049;-52
2023/03/23 07:27:47;;;;;;;0.32;0.30;;;;;;;;;;4984584;28;20049;-52
2023/03/23 07:30:14;;;;;;;0.10;0.10;;;17.00;99.90;;;;;;5002909;28;20018;-52
2023/03/23 07:32:41;;;;;;;0.30;0.30;;;;;;;;;;5004354;28;20061;-52
2023/03/23 07:35:07;;;;;;;1.05;1.02;;;;;;;;;;5002879;28;20064;-52
2023/03/23 07:37:34;;;;;;;0.77;0.35;;;17.80;99.90;;;;;;5000385;28;20033;-52
2023/03/23 07:40:07;;;;;;;0.40;0.40;;;;;;;;;;5004287;28;20129;-52
2023/03/23 07:42:33;;;;;;;0.50;0.50;;;;;;;;;;4987032;28;20026;-52
2023/03/23 07:45:00;;;;;;;0.57;0.57;;;;;;;;;;4996464;28;20034;-50
2023/03/23 07:47:26;;;;;;;0.30;0.30;;;;;;;;;;4993937;28;20073;-50
2023/03/23 07:49:51;;;;;;;0.40;0.40;;;19.40;99.90;;;;;;4997205;28;20428;-50
2023/03/23 07:52:19;;;;;;;0.40;0.40;;;;;;;;;;5010679;28;20113;-50
2023/03/23 07:54:45;;;;;;;0.38;0.38;;;19.60;99.90;;;;;;5013239;28;20065;-50
2023/03/23 07:57:12;;;;;;;0.00;0.00;;;;;;;;;;5004518;28;20057;-50
2023/03/23 07:59:38;;;;;;;0.20;0.20;;;;;;;;;;5003824;28;20095;-50
2023/03/23 08:02:04;;;;;;;0.35;0.35;;;;;;;;;;5001875;28;20035;-50
2023/03/23 08:04:36;;;;;;;0.30;0.30;;;;;;;;;;5007284;28;20124;-50
2023/03/23 08:07:02;;;;;;;0.45;0.45;;;;;;;;;;5011869;28;20406;-50
2023/03/23 08:09:28;;;;;;;0.25;0.20;;;;;;;;;;5013011;28;20030;-50
2023/03/23 08:11:55;;;;;;;0.47;0.45;;;;;;;;;;5013088;28;20026;-50
2023/03/23 08:14:22;;;;;;;1.00;0.40;;;;;;;;;;5005977;28;20034;-50
2023/03/23 08:16:48;;;;;;;0.13;0.13;;;21.50;99.90;;;;;;5011440;28;20041;-50
2023/03/23 08:19:14;;;;;;;0.20;0.20;;;21.30;99.90;;;;;;5013047;28;20026;-50
2023/03/23 08:21:40;;;;;;;0.20;0.20;;;21.70;99.90;;;;;;5012845;28;20493;-50
2023/03/23 08:24:06;;;;;;;0.57;0.57;;;;;;;;;;5012747;28;20065;-50
2023/03/23 08:26:32;;;;;;;0.52;0.22;;;;;;;;;;5013830;28;20038;-50
2023/03/23 08:28:59;;;;;;;0.30;0.30;;;;;;;;;;5014425;28;20062;-51
2023/03/23 08:31:25;;;;;;;0.30;0.30;;;;;;;;;;5016652;28;20036;-50
2023/03/23 08:33:51;;;;;;;0.03;0.03;;;;;;;;;;5008477;28;20080;-50
2023/03/23 08:36:17;;;;;;;0.70;0.70;;;;;;;;;;5016644;28;20115;-50
2023/03/23 08:38:44;;;;;;;0.47;0.25;;;23.50;99.90;;;;;;5016677;28;20369;-50
2023/03/23 08:41:10;;;;;;;0.47;0.47;;;;;;;;;;5016442;28;20037;-50
2023/03/23 08:43:37;;;;;;;0.13;0.13;;;;;;;;;;5011558;28;20397;-50
2023/03/23 08:46:08;;;;;;;0.85;0.30;;;;;;;;;;5010221;28;20034;-52
2023/03/23 08:48:35;;;;;;;0.33;0.33;;;;;;;;;;5016411;28;20083;-52
2023/03/23 08:51:02;;;;;;;0.20;0.20;;;;;;;;;;5016055;28;20026;-52
2023/03/23 08:53:30;;;;;;;0.82;0.82;;;;;;;;;;5016139;28;20105;-52
2023/03/23 08:55:56;;;;;;;0.10;0.10;;;;;;;;;;5016030;28;20532;-52
2023/03/23 08:58:23;;;;;;;0.80;0.57;;;25.20;92.50;;;;;;5007581;28;20504;-51
2023/03/23 09:00:49;;;;;;;0.80;0.80;;;;;;;;;;5004863;28;20041;-52
2023/03/23 09:03:17;;;;;;;0.08;0.08;;;;;;;;;;5008372;28;20037;-51
2023/03/23 09:05:45;;;;;;;0.25;0.25;;;24.80;91.70;;;;;;5008878;28;20049;-50
2023/03/23 09:08:12;;;;;;;0.55;0.55;;;25.40;92.10;;;;;;5009444;28;20466;-52
2023/03/23 09:10:38;;;;;;;0.73;0.50;;;;;;;;;;5000899;28;20538;-53
2023/03/23 09:13:06;;;;;;;0.08;0.08;;;26.20;91.00;;;;;;5008293;28;20390;-52
2023/03/23 09:15:32;;;;;;;0.28;0.28;;;;;;;;;;5006633;28;20037;-54
2023/03/23 09:17:58;;;;;;;0.70;0.70;;;26.40;90.30;;;;;;5007385;28;20057;-52
2023/03/23 09:20:27;;;;;;;0.70;0.47;;;25.80;90.60;;;;;;5015751;28;20038;-53
2023/03/23 09:22:55;;;;;;;0.30;0.30;;;26.50;91.40;;;;;;5013131;28;20409;-53
2023/03/23 09:25:24;;;;;;;0.20;0.20;;;26.30;91.00;;;;;;5013401;28;20097;-52
2023/03/23 09:27:56;;;;;;;0.35;0.35;;;26.40;90.30;;;;;;5013243;28;20042;-53
2023/03/23 09:30:21;;;;;;;;;;;;;;;;;;5013795;28;20042;-53
2023/03/23 09:32:48;;;;;;;0.20;0.20;;;26.60;90.00;;;;;;5013333;28;19909;-53
2023/03/23 09:35:16;;;;;;;0.60;0.60;;;;;;;;;;5012859;28;20034;-53
2023/03/23 09:37:43;;;;;;;0.30;0.30;;;27.40;90.30;;;;;;5012942;28;20038;-54
2023/03/23 09:40:19;;;;;;;0.30;0.22;;;28.10;98.50;;;;;;5012970;28;20033;-54
2023/03/23 09:43:27;;;;;;;0.30;0.30;;;27.60;96.30;;;;;;4996789;28;20445;-54
2023/03/23 09:46:04;;;;;;;0.20;0.20;;;27.20;87.30;;;;;;4984871;28;20061;-53
2023/03/23 09:48:56;;;;;;;0.43;0.43;;;27.70;86.20;;;;;;4973673;28;20039;-53
2023/03/23 09:51:22;;;;;;;0.50;0.50;;;;;;;;;;4973550;28;20091;-53
2023/03/23 09:53:52;;;;;;;0.20;0.20;;;28.30;85.30;;;;;;4976164;28;20383;-53
2023/03/23 09:56:20;;;;;;;0.20;0.20;;;;;;;;;;5016989;28;20099;-54
2023/03/23 09:59:02;;;;;;;0.10;0.10;;;28.40;82.20;;;;;;5031653;28;20039;-54
2023/03/23 10:01:49;;;;;;;0.20;0.20;;;27.60;80.70;;;;;;5022190;28;20076;-53
2023/03/23 10:04:26;;;;;;;0.20;0.20;;;;;;;;;;5031935;28;20072;-54
2023/03/23 10:06:58;;;;;;;0.30;0.30;;;;;;;;;;5032247;28;20467;-53
2023/03/23 10:09:24;;;;;;;0.20;0.20;;;;;;;;;;5032104;28;20073;-52
2023/03/23 10:11:57;;;;;;;0.45;0.30;;;;;;;;;;5032091;28;20503;-52
2023/03/23 10:14:30;;;;;;;0.32;0.32;;;;;;;;;;5030082;28;20030;-52
2023/03/23 10:17:14;;;;;;;0.52;0.52;;;;;;;;;;5022768;28;20049;-53
2023/03/23 10:19:45;;;;;;;0.28;0.28;;;29.10;78.90;;;;;;5021289;28;20571;-52
2023/03/23 10:22:14;;;;;;;0.60;0.20;;;29.10;78.40;;;;;;5008235;28;20049;-54
2023/03/23 10:25:11;;;;;;;0.30;0.30;;;28.50;79.40;;;;;;4994512;28;20074;-54
2023/03/23 10:27:46;;;;;;;0.32;0.32;;;29.10;79.10;;;;;;4993944;28;20038;-56
2023/03/23 10:30:34;;;;;;;0.40;0.40;;;28.70;79.10;;;;;;4994482;28;20026;-54
2023/03/23 10:33:34;;;;;;;0.68;0.40;;;28.70;78.30;;;;;;4998450;28;20358;-53
2023/03/23 10:36:12;;;;;;;0.73;0.50;;;28.30;78.00;;;;;;5013287;28;20073;-53
2023/03/23 10:38:54;;;;;;;0.20;0.20;;;29.00;79.10;;;;;;5031361;28;20392;-53
2023/03/23 10:41:21;;;;;;;0.22;0.22;;;;;;;;;;5031481;28;20497;-54
2023/03/23 10:43:50;;;;;;;0.22;0.22;;;;;;;;;;5030426;28;20481;-53
2023/03/23 10:46:16;;;;;;;0.20;0.20;;;;;;;;;;5030909;28;20125;-54
2023/03/23 10:48:43;;;;;;;0.20;0.20;;;;;;;;;;5030884;28;20448;-53
2023/03/23 10:51:14;;;;;;;0.90;0.75;;;;;;;;;;5031512;28;20397;-53
2023/03/23 10:53:43;;;;;;;0.38;0.38;;;;;;;;;;5031318;28;20045;-53
2023/03/23 10:56:28;;;;;;;0.10;0.10;;;;;;;;;;5048161;28;20505;-55
2023/03/23 10:58:55;;;;;;;0.10;0.10;;;29.60;72.70;;;;;;5031330;28;20045;-54
2023/03/23 11:01:34;;;;;;;0.10;0.10;;;28.90;73.10;;;;;;5019271;28;20040;-55
2023/03/23 11:04:01;;;;;;;0.20;0.20;;;29.20;72.40;;;;;;5014576;28;20045;-55
2023/03/23 11:06:35;;;;;;;0.22;0.22;;;29.00;72.70;;;;;;5027335;28;20532;-52
2023/03/23 11:09:16;;;;;;;0.20;0.20;;;28.90;72.20;;;;;;5018717;28;20048;-53
2023/03/23 11:11:46;;;;;;;0.30;0.30;;;;;;;;;;5007752;28;20070;-51
2023/03/23 11:14:28;;;;;;;0.47;0.47;;;29.60;71.90;;;;;;5008107;28;20061;-51
2023/03/23 11:17:02;;;;;;;0.90;0.77;;;28.80;70.80;;;;;;5013432;28;20025;-52
2023/03/23 11:19:31;;;;;;;0.30;0.30;;;29.10;70.90;;;;;;5013373;28;20030;-52
2023/03/23 11:22:04;;;;;;;0.20;0.20;;;28.70;70.50;;;;;;5013685;28;20030;-52
2023/03/23 11:24:41;;;;;;;0.20;0.20;;;28.60;70.70;;;;;;5013379;28;20557;-51
2023/03/23 11:27:08;;;;;;;0.20;0.20;;;28.00;70.50;;;;;;5011449;28;20038;-50
2023/03/23 11:29:36;;;;;;;0.38;0.38;;;28.10;70.80;;;;;;5005925;28;20033;-48
2023/03/23 11:32:09;;;;;;;0.20;0.20;;;28.60;72.30;;;;;;5010469;28;20026;-53
2023/03/23 11:34:41;;;;;;;0.20;0.20;;;28.50;72.10;;;;;;5004424;28;20496;-49
2023/03/23 11:37:35;;;;;;;0.10;0.10;;;28.40;71.10;;;;;;5007617;28;20477;-53
2023/03/23 11:40:06;;;;;;;0.30;0.30;;;;;;;;;;4990988;28;20042;-53
2023/03/23 11:42:31;;;;;;;0.17;0.17;;;27.80;70.30;;;;;;4990881;28;20046;-52
2023/03/23 11:45:25;;;;;;;0.10;0.10;;;27.90;70.90;;;;;;4990910;28;20046;-49
2023/03/23 11:48:24;;;;;;;0.65;0.32;;;26.40;70.50;;;;;;4991448;28;20486;-49
2023/03/23 11:51:07;;;;;;;0.15;0.15;;;27.10;70.40;;;;;;4991484;28;20375;-55
2023/03/23 11:53:40;;;;;;;0.30;0.30;;;;;;;;;;4987715;28;20040;-56
2023/03/23 11:56:07;;;;;;;0.10;0.10;;;;;;;;;;4991532;28;20030;-49
2023/03/23 11:58:33;;;;;;;0.17;0.17;;;28.50;71.10;;;;;;4991285;28;20042;-53
2023/03/23 12:01:14;;;;;;;0.10;0.10;;;28.40;70.00;;;;;;4993200;28;20037;-51
2023/03/23 12:03:54;;;;;;;0.08;0.08;;;28.80;71.40;;;;;;4995143;28;20073;-54
2023/03/23 12:06:27;;;;;;;0.20;0.20;;;27.30;69.40;;;;;;5011771;28;20038;-49
2023/03/23 12:09:21;;;;;;;0.10;0.10;;;27.90;71.90;;;;;;4995177;28;20046;-54
2023/03/23 12:11:57;;;;;;;0.10;0.10;;;;;;;;;;4956425;29;20035;-51
2023/03/23 12:14:32;;;;;;;0.38;0.38;;;;;;;;;;4956308;29;20141;-51
2023/03/23 12:17:04;;;;;;;0.10;0.10;;;;;;;;;;4947080;29;20031;-53
2023/03/23 12:20:04;;;;;;;0.40;0.40;;;28.20;69.60;;;;;;4956316;29;20043;-50
2023/03/23 12:22:51;;;;;;;0.20;0.20;;;27.60;70.90;;;;;;4955885;29;20032;-52
2023/03/23 12:25:29;;;;;;;0.20;0.20;;;27.80;71.00;;;;;;4956040;29;20430;-51
2023/03/23 12:28:01;;;;;;;0.32;0.32;;;27.80;71.90;;;;;;4940000;28;20471;-50
2023/03/23 12:30:53;;;;;;;0.10;0.10;;;27.50;72.10;;;;;;4956206;29;20155;-53
2023/03/23 12:33:26;;;;;;;0.00;0.00;;;;;;;;;;4956054;29;20034;-52
2023/03/23 12:36:18;;;;;;;0.00;0.00;;;27.30;71.40;;;;;;4940133;28;20178;-55
2023/03/23 12:38:57;;;;;;;0.22;0.20;;;27.80;71.60;;;;;;4955824;28;20063;-50
2023/03/23 12:41:48;;;;;;;0.10;0.10;;;27.40;70.30;;;;;;4955841;29;20039;-50
2023/03/23 12:44:17;;;;;;;0.13;0.13;;;27.60;70.60;;;;;;4954834;29;20480;-54
2023/03/23 12:46:54;;;;;;;0.17;0.17;;;27.60;70.70;;;;;;4955623;28;20035;-50
2023/03/23 12:49:27;;;;;;;0.25;0.25;;;27.90;72.40;;;;;;4986935;28;20042;-51
2023/03/23 12:52:11;;;;;;;0.30;0.30;;;27.80;70.00;;;;;;4996659;28;20041;-51
2023/03/23 12:54:51;;;;;;;0.20;0.20;;;28.10;70.60;;;;;;4996439;28;20026;-53
2023/03/23 12:57:38;;;;;;;0.13;0.13;;;28.00;70.10;;;;;;4996324;28;20039;-52
2023/03/23 13:00:30;;;;;;;0.20;0.20;;;27.10;69.70;;;;;;4996296;28;20046;-51
2023/03/23 13:03:21;;;;;;;0.10;0.10;;;27.30;70.10;;;;;;4996288;28;20042;-52
2023/03/23 13:05:54;;;;;;;0.15;0.15;;;27.50;70.30;;;;;;4996246;28;20049;-52
2023/03/23 13:08:35;;;;;;;0.10;0.10;;;27.40;70.30;;;;;;4996129;28;20042;-51
2023/03/23 13:11:08;;;;;;;0.10;0.10;;;27.60;70.90;;;;;;4994555;28;20049;-51
2023/03/23 13:13:50;;;;;;;0.10;0.10;;;27.30;70.10;;;;;;4995560;28;20470;-52
2023/03/23 13:16:31;;;;;;;0.10;0.08;;;27.50;69.90;;;;;;4996038;28;20046;-52
2023/03/23 13:19:02;;;;;;;0.00;0.00;;;27.10;69.40;;;;;;4996358;28;20035;-52
2023/03/23 13:21:38;;;;;;;0.20;0.20;;;27.90;70.70;;;;;;5043953;28;20034;-51
2023/03/23 13:24:10;;;;;;;0.30;0.30;;;28.00;71.40;;;;;;5028352;28;20141;-52
2023/03/23 13:26:42;;;;;;;0.10;0.10;;;28.30;72.20;;;;;;5033216;28;20065;-51
2023/03/23 13:29:20;;;;;;;0.20;0.20;;;28.10;71.00;;;;;;5033086;28;20047;-51
2023/03/23 13:31:47;;;;;;;0.00;0.00;;;28.30;71.00;;;;;;5033120;28;20132;-52
2023/03/23 13:34:30;;;;;;;0.10;0.10;;;27.90;70.00;;;;;;5032825;28;20055;-52
2023/03/23 13:37:05;;;;;;;0.28;0.28;;;28.00;70.50;;;;;;5031918;28;20452;-51
2023/03/23 13:39:36;;;;;;;0.00;0.00;;;27.90;70.60;;;;;;5032824;28;20440;-51
2023/03/23 13:42:20;;;;;;;0.10;0.10;;;27.80;69.60;;;;;;5033054;28;20029;-50